AC0TG-1 Weather Reports


Display with metric or nautical units.
time (UTC)temp
F
wind
direction
speed
MPH
gust
MPH
rain 1hr
in
rain 24hr
in
rain mn
in
humidity
%
barometer
mb
20220522013623 61 0 8.0 11.0 0.69 6.47 0.00 76 1016.2
20220522013425 61 0 4.0 11.0 0.69 6.47 0.00 76 1016.2
20220522012925 61 0 8.0 11.0 0.69 6.47 0.00 76 1016.2
20220522012425 61 0 10.0 10.0 0.06 5.84 0.00 76 1016.2
20220522011925 61 0 10.0 18.0 0.12 5.84 0.00 76 1016.5
20220522011425 62 0 12.0 15.0 0.08 5.80 0.00 75 1016.5
20220522010925 62 0 11.0 11.0 0.08 5.80 0.00 75 1016.2
20220522010425 62 0 8.0 12.0 0.08 5.80 0.00 75 1015.9
20220522005925 63 22 7.0 8.0 0.06 6.29 0.00 75 1015.9
20220522005425 63 0 7.0 7.0 0.06 6.29 0.00 75 1015.9
20220522004925 63 0 6.0 6.0 0.06 6.29 0.00 73 1015.9
20220522004425 64 0 6.0 13.0 0.06 6.29 0.00 73 1015.9
20220522004146 64 22 6.0 6.0 0.08 6.29 0.00 73 1015.9
20220522003925 64 22 6.0 6.0 0.08 6.29 0.00 73 1015.9
20220522003426 65 0 6.0 12.0 0.08 6.29 0.00 73 1015.5
20220522002925 65 0 10.0 12.0 0.08 6.29 0.00 72 1015.5
20220522002425 66 337 12.0 13.0 0.02 6.23 0.00 72 1015.5
20220522001925 66 337 5.0 14.0 0.14 6.23 0.00 72 1015.5
20220522001425 67 0 9.0 18.0 0.14 6.23 0.00 71 1015.5
20220522000925 67 337 15.0 15.0 0.14 6.23 0.00 71 1015.5
20220522000425 68 0 7.0 10.0 0.14 6.23 0.00 70 1015.2
20220521235925 69 0 10.0 12.0 0.14 7.23 0.00 69 1015.2
20220521235425 70 292 9.0 10.0 0.14 7.23 0.00 68 1015.2
20220521234925 70 45 8.0 12.0 1.85 7.23 0.00 68 1014.9
20220521234425 71 337 12.0 14.0 7.03 7.21 0.00 68 1014.9
20220521233925 72 45 11.0 11.0 8.48 7.21 0.00 67 1014.5
20220521233425 72 0 9.0 9.0 8.48 7.21 0.00 67 1014.5
20220521232925 73 315 6.0 9.0 8.48 7.21 0.00 67 1014.5
20220521232425 73 0 9.0 12.0 8.36 7.08 0.00 66 1014.2
20220521231925 74 22 12.0 12.0 8.36 7.08 0.00 64 1014.2
20220521231425 75 22 12.0 12.0 8.36 7.08 0.00 64 1013.8
20220521230925 77 0 12.0 12.0 8.85 7.08 0.00 63 1013.8
20220521230425 77 45 4.0 14.0 8.85 7.08 0.00 64 1013.8
20220521225925 78 315 14.0 14.0 8.85 7.80 0.00 63 1013.5
20220521225425 80 337 5.0 16.0 8.85 7.80 0.00 62 1013.2
20220521224926 80 0 0.0 0.0 7.13 7.80 0.00 62 1013.2
20220521224425 80 0 0.0 78.0 0.48 3.09 0.00 64 1013.2
20220521223925 80 22 10.0 10.0 0.91 3.09 0.00 64 1013.2
20220521223425 82 0 7.0 7.0 0.91 3.09 0.00 62 1012.8
20220521222926 82 0 6.0 7.0 0.91 3.09 0.00 61 1012.8
20220521222426 84 22 3.0 10.0 0.91 3.09 0.00 59 1013.2
20220521221926 88 337 8.0 8.0 0.91 3.09 0.00 55 1012.8
20220521221426 91 0 7.0 10.0 0.91 3.09 0.00 53 1012.8
20220521220926 91 157 3.0 4.0 0.85 2.60 0.00 55 1012.5
20220521220426 91 202 2.0 6.0 0.85 2.60 0.00 55 1012.5
20220521215926 91 135 5.0 6.0 0.85 3.39 0.00 54 1012.5
20220521215426 93 180 6.0 7.0 0.85 3.39 0.00 53 1012.5
20220521214926 93 180 7.0 7.0 0.85 3.39 0.00 53 1012.5
20220521214426 93 157 4.0 5.0 0.42 2.97 0.00 53 1012.5
20220521213926 91 180 5.0 8.0 0.73 2.97 0.00 54 1012.5
20220521213426 92 135 6.0 8.0 0.73 2.97 0.00 54 1012.8
20220521212926 92 157 7.0 7.0 0.73 2.97 0.00 54 1012.8
20220521212426 92 180 5.0 7.0 1.26 2.97 0.00 54 1012.8
20220521211926 92 157 7.0 7.0 1.26 2.97 0.00 54 1012.8
20220521211426 92 157 4.0 11.0 1.26 2.97 0.00 54 1012.8
20220521210926 93 180 11.0 11.0 0.83 2.54 0.00 53 1012.8
20220521210426 93 157 7.0 8.0 0.83 2.54 0.00 53 1012.8
20220521205926 93 180 8.0 9.0 0.83 3.29 0.00 53 1013.2
20220521205426 93 202 5.0 9.0 0.83 3.29 0.00 53 1012.8
20220521204926 93 180 7.0 7.0 0.83 3.29 0.00 54 1013.2
20220521204426 92 157 6.0 8.0 0.52 2.99 0.00 54 1012.8
20220521203926 91 202 8.0 8.0 0.89 2.99 0.00 56 1013.2
20220521203426 91 157 5.0 8.0 0.89 2.99 0.00 55 1013.2
20220521202926 91 157 8.0 8.0 0.36 2.46 0.00 55 1013.2
20220521202426 92 157 8.0 11.0 0.36 2.46 0.00 54 1013.2
20220521201926 93 202 7.0 7.0 0.67 2.46 0.00 53 1013.2
20220521201426 90 157 2.0 2.0 0.67 2.46 0.00 57 1013.2
20220521200926 90 157 2.0 8.0 0.67 2.46 0.00 56 1013.2
20220521200426 91 180 8.0 8.0 0.67 2.46 0.00 55 1013.2
20220521195926 91 157 6.0 9.0 0.67 3.35 0.00 55 1013.2
20220521195426 91 135 7.0 7.0 0.67 3.35 0.00 56 1013.2
20220521194926 92 135 6.0 9.0 0.67 3.35 0.00 54 1013.2
20220521194426 92 157 8.0 9.0 0.30 2.99 0.00 53 1013.2
20220521193926 90 180 9.0 9.0 0.69 2.99 0.00 56 1013.2
20220521193426 90 180 4.0 8.0 0.69 2.99 0.00 56 1013.2
20220521192926 91 157 8.0 10.0 0.69 2.99 0.00 55 1013.2
20220521192426 91 225 10.0 10.0 0.69 2.99 0.00 55 1013.2
20220521191926 91 202 9.0 9.0 0.38 2.68 0.00 57 1013.2
20220521191426 90 135 7.0 8.0 0.38 2.68 0.00 56 1013.2
20220521190926 90 202 8.0 8.0 0.73 2.68 0.00 57 1013.2
20220521190426 91 202 6.0 6.0 0.73 2.68 0.00 55 1012.8
20220521185926 91 202 6.0 8.0 0.73 3.29 0.00 55 1013.2
20220521185426 92 180 8.0 8.0 0.73 3.29 0.00 55 1012.8
20220521184926 92 157 7.0 7.0 0.73 3.29 0.00 56 1012.8
20220521184426 91 157 6.0 12.0 0.69 2.90 0.00 57 1012.8
20220521183926 91 157 12.0 12.0 0.69 2.90 0.00 56 1012.8
20220521183426 90 135 7.0 10.0 0.69 2.90 0.00 56 1012.8
20220521182926 90 135 10.0 10.0 0.69 2.90 0.00 58 1013.2
20220521182426 89 202 9.0 10.0 0.69 2.90 0.00 59 1013.2
20220521181926 91 202 10.0 10.0 0.99 2.90 0.00 56 1013.2
20220521181426 91 202 10.0 10.0 0.99 2.90 0.00 56 1013.2
20220521180926 91 247 8.0 8.0 0.65 2.56 0.00 57 1013.2
20220521180426 91 180 6.0 6.0 0.65 2.56 0.00 57 1013.2
20220521175926 90 157 5.0 9.0 0.65 3.60 0.00 58 1013.2
20220521175426 90 180 9.0 13.0 0.65 3.60 0.00 60 1013.2
20220521174926 89 202 6.0 7.0 0.65 3.60 0.00 61 1013.2
20220521174426 88 135 5.0 7.0 0.77 3.25 0.00 62 1013.2
20220521173926 87 202 7.0 11.0 0.77 3.25 0.00 62 1013.2
20220521173426 88 157 11.0 11.0 0.99 3.25 0.00 61 1013.2
20220521172926 88 157 11.0 11.0 0.99 3.25 0.00 61 1013.2
20220521172426 88 180 6.0 11.0 0.99 3.25 0.00 60 1013.2
20220521171926 88 180 11.0 11.0 0.69 2.95 0.00 61 1013.2
20220521171426 87 135 8.0 8.0 0.69 2.95 0.00 62 1013.2
20220521170926 87 157 5.0 8.0 0.69 2.95 0.00 61 1013.2
20220521170426 87 180 8.0 8.0 0.69 2.95 0.00 61 1013.2
20220521165927 88 157 6.0 8.0 0.69 3.60 0.00 61 1012.8
20220521165426 88 157 8.0 8.0 0.69 3.60 0.00 59 1012.8
20220521164926 90 157 7.0 10.0 0.69 3.60 0.00 59 1012.8
20220521164426 90 202 10.0 10.0 0.61 3.13 0.00 58 1013.2
20220521163926 89 247 7.0 7.0 0.38 2.90 0.00 61 1013.2
20220521163426 89 225 7.0 11.0 0.38 2.90 0.00 61 1013.2
20220521162927 88 180 11.0 11.0 0.38 2.90 0.00 62 1013.2
20220521162426 88 225 6.0 8.0 0.38 2.90 0.00 61 1013.2
20220521161926 88 180 8.0 9.0 0.57 2.90 0.00 62 1013.2
20220521161427 88 225 9.0 9.0 0.57 2.90 0.00 61 1013.2
20220521160927 88 180 8.0 11.0 0.57 2.90 0.00 61 1012.8
20220521160427 88 180 11.0 11.0 0.57 2.90 0.00 63 1013.2
20220521155927 87 180 11.0 11.0 0.57 3.78 0.00 63 1012.8
20220521155427 87 180 11.0 11.0 0.57 3.78 0.00 62 1012.8
20220521154927 87 180 3.0 8.0 0.57 3.78 0.00 63 1012.8
20220521154427 86 225 8.0 8.0 0.30 3.39 0.00 66 1013.2
20220521153927 85 202 7.0 8.0 0.30 3.39 0.00 66 1013.2
20220521153427 85 202 8.0 8.0 0.30 3.39 0.00 66 1012.8
20220521152927 84 202 7.0 10.0 0.30 3.39 0.00 67 1012.8
20220521152427 84 225 8.0 8.0 0.30 3.39 0.00 68 1012.8
20220521151927 83 202 6.0 7.0 0.12 3.21 0.00 70 1013.2
20220521151427 82 202 7.0 7.0 0.12 3.21 0.00 71 1012.8
20220521150927 81 180 7.0 12.0 0.36 3.21 0.00 73 1012.8
20220521150427 80 202 12.0 12.0 0.36 3.21 0.00 74 1013.2
20220521145927 80 225 4.0 6.0 0.36 3.72 0.00 74 1013.2
20220521145427 79 225 6.0 8.0 0.48 3.72 0.00 74 1013.5
20220521144927 79 247 5.0 8.0 0.48 3.72 0.00 75 1013.5
20220521144427 79 225 6.0 9.0 0.36 3.60 0.00 75 1013.2
20220521143927 79 247 9.0 9.0 0.36 3.60 0.00 74 1013.2
20220521143427 80 247 8.0 8.0 0.36 3.60 0.00 74 1013.2
20220521142927 80 225 8.0 8.0 0.36 3.60 0.00 74 1012.8
20220521142427 80 202 8.0 10.0 0.36 3.60 0.00 73 1012.8
20220521141927 80 202 10.0 13.0 0.36 3.60 0.00 73 1012.5
20220521141427 80 225 8.0 12.0 0.36 3.60 0.00 73 1012.5
20220521140927 81 202 4.0 8.0 0.28 3.35 0.00 73 1012.1
20220521140427 80 202 8.0 15.0 0.28 3.35 0.00 73 1011.8
20220521135927 80 202 15.0 15.0 0.28 3.66 0.00 73 1011.5
20220521135427 81 202 4.0 16.0 0.16 3.54 0.00 73 1011.5
20220521134927 80 180 10.0 10.0 0.38 3.54 0.00 74 1011.5
20220521134427 80 157 9.0 12.0 0.38 3.54 0.00 75 1011.1
20220521133927 79 180 10.0 10.0 0.38 3.54 0.00 76 1011.1
20220521133427 79 247 9.0 13.0 0.38 3.54 0.00 76 1010.8
20220521132927 79 202 13.0 13.0 0.38 3.54 0.00 76 1010.8
20220521132427 78 112 4.0 11.0 0.38 3.54 0.00 77 1010.8
20220521131927 78 180 11.0 11.0 0.38 3.54 0.00 78 1010.8
20220521131427 78 180 9.0 9.0 0.38 3.54 0.00 78 1010.8
20220521130927 78 135 7.0 11.0 0.38 3.37 0.00 78 1010.8
20220521130427 78 157 11.0 11.0 0.38 3.37 0.00 78 1010.8
20220521125927 78 180 5.0 7.0 0.38 4.05 0.00 78 1010.4
20220521125427 78 202 7.0 7.0 0.32 3.82 0.00 78 1010.4
20220521124927 78 180 7.0 7.0 0.32 3.82 0.00 78 1010.4
20220521124427 78 180 7.0 16.0 0.32 3.82 0.00 78 1010.4
20220521123927 78 157 3.0 7.0 0.32 3.82 0.00 79 1010.4
20220521123427 78 180 7.0 7.0 0.32 3.82 0.00 79 1010.1
20220521122927 77 180 4.0 5.0 0.32 3.82 0.00 79 1010.1
20220521122427 77 157 4.0 7.0 0.32 3.82 0.00 80 1010.1
20220521121927 77 225 7.0 8.0 0.32 3.82 0.00 80 1010.1
20220521121427 77 180 8.0 15.0 0.32 3.82 0.00 80 1009.8
20220521120927 77 135 7.0 13.0 0.28 3.66 0.00 80 1009.8
20220521120427 76 157 13.0 13.0 0.28 3.66 0.00 81 1009.8
20220521115927 76 157 7.0 11.0 0.28 3.76 0.00 81 1009.8
20220521115427 76 157 11.0 11.0 0.12 3.60 0.00 81 1009.8
20220521114927 76 157 3.0 8.0 0.12 3.60 0.00 81 1009.8
20220521114427 76 202 8.0 9.0 0.36 3.60 0.00 81 1009.8
20220521113927 76 180 4.0 7.0 0.36 3.60 0.00 81 1009.8
20220521113427 76 225 4.0 9.0 0.36 3.60 0.00 81 1009.8
20220521112927 76 180 7.0 8.0 0.36 3.60 0.00 82 1009.4
20220521112427 76 202 8.0 9.0 0.36 3.60 0.00 82 1009.4
20220521111927 76 157 9.0 9.0 0.36 3.60 0.00 82 1009.1
20220521111427 76 157 9.0 11.0 0.36 3.60 0.00 82 1009.1
20220521110927 76 180 6.0 11.0 0.42 3.47 0.00 82 1009.1
20220521110427 76 157 7.0 7.0 0.42 3.47 0.00 82 1009.1
20220521105927 76 225 4.0 7.0 0.42 3.80 0.00 82 1009.1
20220521105427 75 202 7.0 7.0 0.42 3.80 0.00 82 1009.1
20220521104927 75 225 4.0 6.0 0.63 3.80 0.00 82 1009.1
20220521104427 75 157 6.0 9.0 0.38 3.56 0.00 82 1009.1
20220521103927 75 180 8.0 8.0 0.38 3.56 0.00 82 1009.1
20220521103427 75 157 4.0 11.0 0.38 3.56 0.00 82 1009.1
20220521102927 75 202 11.0 11.0 0.38 3.56 0.00 82 1009.1
20220521102427 75 157 6.0 7.0 0.38 3.56 0.00 82 1009.1
20220521101927 75 180 7.0 7.0 0.59 3.56 0.00 82 1009.1
20220521101427 75 157 2.0 11.0 0.59 3.56 0.00 82 1009.1
20220521100927 75 135 5.0 11.0 0.40 3.37 0.00 82 1008.8
20220521100427 75 157 11.0 11.0 0.40 3.37 0.00 82 1008.8
20220521095927 75 180 8.0 8.0 0.40 3.72 0.00 81 1008.8
20220521095428 75 180 8.0 8.0 0.20 3.52 0.00 81 1008.8
20220521094928 75 157 8.0 10.0 0.20 3.52 0.00 81 1008.8
20220521094428 75 180 10.0 10.0 0.57 3.52 0.00 81 1008.4
20220521093928 75 180 7.0 8.0 0.57 3.52 0.00 81 1008.4
20220521093428 75 135 8.0 8.0 0.57 3.52 0.00 81 1008.4
20220521092928 75 135 8.0 8.0 0.57 3.52 0.00 81 1008.4
20220521092428 75 135 3.0 8.0 0.57 3.52 0.00 81 1008.4
20220521091928 75 157 8.0 8.0 0.50 3.31 0.00 81 1008.4
20220521091428 75 157 7.0 7.0 0.50 3.31 0.00 81 1008.4
20220521090928 75 202 5.0 5.0 0.50 3.31 0.00 80 1008.4
20220521090428 75 157 0.0 3.0 0.50 3.31 0.00 80 1008.1
20220521085928 75 135 3.0 7.0 0.50 3.74 0.00 80 1008.1
20220521085428 75 135 7.0 7.0 0.50 3.74 0.00 80 1008.1
20220521084928 75 135 5.0 7.0 0.50 3.74 0.00 80 1008.1
20220521084428 75 202 2.0 7.0 0.34 3.37 0.00 79 1008.1
20220521083928 75 157 6.0 7.0 0.34 3.37 0.00 79 1008.1
20220521083428 76 180 7.0 7.0 0.34 3.37 0.00 79 1008.1
20220521082928 76 180 7.0 7.0 0.34 3.37 0.00 79 1008.1
20220521082428 76 157 6.0 17.0 0.46 3.37 0.00 79 1008.1
20220521081928 76 180 7.0 8.0 0.32 3.23 0.00 79 1008.1
20220521081428 76 157 8.0 9.0 0.32 3.23 0.00 79 1008.1
20220521080928 76 180 9.0 11.0 0.32 3.23 0.00 78 1008.1
20220521080428 76 135 10.0 10.0 0.32 3.23 0.00 78 1008.1
20220521075928 76 202 4.0 12.0 0.32 3.29 0.00 78 1008.1
20220521075428 76 157 12.0 12.0 0.32 3.29 0.00 78 1008.1
20220521074928 76 157 3.0 13.0 0.32 3.29 0.00 77 1008.1
20220521074428 76 202 7.0 11.0 0.36 3.09 0.00 77 1008.1
20220521073928 76 157 11.0 11.0 0.36 3.09 0.00 77 1008.1
20220521073428 76 157 11.0 15.0 0.36 3.09 0.00 77 1008.1
20220521072928 76 180 15.0 15.0 0.24 2.97 0.00 77 1007.7
20220521072428 76 157 8.0 15.0 0.24 2.97 0.00 76 1007.7
20220521071928 76 157 15.0 15.0 0.24 2.97 0.00 76 1008.1
20220521071428 76 157 8.0 13.0 0.24 2.97 0.00 76 1007.7
20220521070928 76 180 8.0 13.0 0.46 2.97 0.00 76 1007.7
20220521070428 76 180 8.0 8.0 0.46 2.97 0.00 76 1007.7
20220521065928 76 157 2.0 8.0 0.46 3.15 0.00 75 1007.7
20220521065428 76 157 5.0 6.0 0.46 3.15 0.00 75 1007.7
20220521064928 76 180 6.0 7.0 0.46 3.15 0.00 75 1007.7
20220521064428 76 157 5.0 11.0 0.50 2.90 0.00 75 1007.7
20220521063928 76 180 11.0 11.0 0.50 2.90 0.00 75 1007.7
20220521063428 76 135 7.0 7.0 0.50 2.90 0.00 74 1007.7
20220521062928 77 157 7.0 10.0 0.50 2.90 0.00 74 1007.7
20220521062428 77 157 5.0 5.0 0.50 2.90 0.00 74 1007.7
20220521061928 77 157 2.0 6.0 0.50 2.90 0.00 74 1007.7
20220521061428 77 157 6.0 6.0 0.50 2.90 0.00 74 1007.7
20220521060928 77 180 6.0 6.0 0.52 2.68 0.00 73 1007.7
20220521060428 77 180 6.0 6.0 0.52 2.68 0.00 73 1007.7
20220521055928 77 135 4.0 6.0 0.52 3.05 0.00 73 1007.7
20220521055428 78 180 5.0 6.0 0.52 3.05 0.00 72 1007.7
20220521054928 78 157 6.0 6.0 0.52 3.05 0.00 72 1007.7
20220521054428 78 157 5.0 10.0 0.38 2.76 0.00 72 1007.4
20220521053928 78 157 10.0 10.0 0.38 2.76 0.00 72 1007.4
20220521053428 78 180 10.0 10.0 0.38 2.76 0.00 72 1007.7
20220521052928 78 135 7.0 10.0 0.38 2.76 0.00 72 1007.4
20220521052428 78 135 10.0 10.0 0.38 2.76 0.00 71 1007.4
20220521051928 78 180 5.0 10.0 0.38 2.76 0.00 71 1007.7
20220521051428 78 202 10.0 11.0 0.38 2.76 0.00 71 1007.4
20220521051107 78 135 8.0 16.0 0.34 2.52 0.00 71 1007.4
20220521050928 78 135 8.0 16.0 0.34 2.52 0.00 71 1007.4
20220521050428 78 157 16.0 16.0 0.34 2.52 0.00 71 1007.7
20220521045928 79 157 11.0 12.0 0.34 2.80 0.00 72 1007.4
20220521045428 79 135 7.0 15.0 0.34 2.80 0.00 72 1007.4
20220521044928 79 180 9.0 13.0 0.34 2.80 0.00 72 1007.4
20220521044428 79 135 13.0 13.0 0.20 2.66 0.00 72 1007.4
20220521043928 79 135 5.0 11.0 0.46 2.66 0.00 72 1007.4
20220521043505 79 157 6.0 8.0 0.46 2.66 0.00 72 1007.7
20220521043428 79 157 6.0 8.0 0.46 2.66 0.00 72 1007.7
20220521042928 79 157 8.0 8.0 0.46 2.66 0.00 72 1007.4
20220521042428 79 157 6.0 7.0 0.46 2.66 0.00 72 1007.7
20220521041928 79 135 6.0 13.0 0.46 2.66 0.00 72 1007.7
20220521041428 79 180 5.0 10.0 0.26 2.66 0.00 72 1007.4
20220521040928 79 135 10.0 10.0 0.57 2.46 0.00 72 1006.7
20220521040428 80 157 7.0 10.0 0.57 2.46 0.00 72 1006.4
20220521035928 80 157 10.0 10.0 0.57 2.86 0.00 72 1006.4
20220521035428 80 180 5.0 7.0 0.57 2.86 0.00 71 1006.7
20220521034928 80 157 5.0 8.0 0.57 2.86 0.00 71 1006.4
20220521034428 80 135 8.0 10.0 0.52 2.60 0.00 71 1006.4
20220521033928 80 135 10.0 10.0 0.52 2.60 0.00 71 1006.4
20220521033428 80 157 5.0 7.0 0.52 2.60 0.00 70 1006.4
20220521032928 80 135 7.0 12.0 0.52 2.60 0.00 70 1006.4
20220521032429 80 157 8.0 8.0 0.52 2.60 0.00 71 1006.4
20220521031929 80 157 7.0 7.0 0.52 2.60 0.00 70 1006.4
20220521031429 80 157 4.0 4.0 0.22 2.29 0.00 69 1006.4
20220521030929 81 135 4.0 6.0 0.44 2.29 0.00 69 1006.4
20220521030429 81 135 6.0 6.0 0.44 2.29 0.00 68 1006.0
20220521025929 81 157 4.0 6.0 0.44 3.17 0.00 67 1006.0
20220521025429 81 135 5.0 5.0 0.44 3.17 0.00 66 1006.0
20220521024929 82 135 2.0 6.0 0.44 3.17 0.00 65 1006.0
20220521024429 82 157 6.0 7.0 0.46 2.95 0.00 63 1006.0
20220521023929 82 157 7.0 8.0 0.46 2.95 0.00 63 1006.0
20220521023429 82 135 6.0 6.0 0.46 2.95 0.00 63 1006.0
20220521022929 83 157 6.0 6.0 0.46 2.95 0.00 63 1006.0
20220521022429 83 157 5.0 5.0 0.46 2.95 0.00 63 1005.7
20220521021929 83 135 4.0 7.0 0.73 2.95 0.00 62 1005.7
20220521021429 83 157 2.0 7.0 0.50 2.95 0.00 62 1005.7
20220521020929 83 135 7.0 7.0 0.50 2.72 0.00 62 1005.7
20220521020429 84 135 6.0 11.0 0.50 2.72 0.00 62 1005.7
20220521015929 84 157 11.0 11.0 0.50 3.41 0.00 62 1005.4
20220521015429 84 157 6.0 6.0 0.50 3.41 0.00 62 1005.4
20220521014929 84 157 6.0 8.0 0.50 3.41 0.00 61 1005.7
20220521014429 84 157 6.0 6.0 0.81 3.17 0.00 61 1005.4
20220521013929 84 135 6.0 7.0 0.81 3.17 0.00 62 1005.4